Time;durP1;ratioP1;P1;durP2;ratioP2;P2;SDS_P1;SDS_P2;PMS_P1;PMS_P2;Temp;Humidity;BMP_temperature;BMP_pressure;BME280_temperature;BME280_humidity;BME280_pressure;Samples;Min_cycle;Max_cycle;Signal;HPM_P1;HPM_P2
2023/10/12 00:00:42;;;;;;;5.40;2.60;;;12.20;99.90;;;;;;5051833;28;20879;-64
2023/10/12 00:03:12;;;;;;;10.17;2.93;;;12.30;99.90;;;;;;5052261;28;20383;-64
2023/10/12 00:05:39;;;;;;;7.50;3.00;;;12.20;99.90;;;;;;5051108;28;20847;-66
2023/10/12 00:08:10;;;;;;;12.13;2.57;;;12.10;99.90;;;;;;5050948;28;20395;-66
2023/10/12 00:10:44;;;;;;;22.63;3.53;;;12.10;99.90;;;;;;5051057;28;20384;-65
2023/10/12 00:13:14;;;;;;;11.00;2.87;;;12.10;99.90;;;;;;5053715;28;20372;-65
2023/10/12 00:15:45;;;;;;;5.10;2.50;;;12.10;99.90;;;;;;5054904;28;20484;-65
2023/10/12 00:18:14;;;;;;;10.30;2.60;;;12.20;99.90;;;;;;5053881;28;20388;-65
2023/10/12 00:20:40;;;;;;;14.43;2.93;;;12.20;99.90;;;;;;5055829;28;20380;-65
2023/10/12 00:23:10;;;;;;;14.80;2.50;;;12.20;99.90;;;;;;5055700;28;20380;-65
2023/10/12 00:25:46;;;;;;;9.37;3.13;;;12.10;99.90;;;;;;5053304;28;20821;-64
2023/10/12 00:28:19;;;;;;;11.43;2.90;;;12.00;99.90;;;;;;5054350;28;20455;-65
2023/10/12 00:30:49;;;;;;;7.67;2.50;;;11.90;99.90;;;;;;5055478;28;20369;-69
2023/10/12 00:33:17;;;;;;;4.70;2.47;;;12.00;99.90;;;;;;5055502;28;20380;-66
2023/10/12 00:36:00;;;;;;;11.53;2.90;;;12.00;99.90;;;;;;5054473;28;20457;-65
2023/10/12 00:38:29;;;;;;;7.53;2.67;;;12.00;99.90;;;;;;5054898;28;20384;-65
2023/10/12 00:40:57;;;;;;;3.90;2.40;;;12.00;99.90;;;;;;5055378;28;20376;-65
2023/10/12 00:43:23;;;;;;;6.03;2.67;;;12.00;99.90;;;;;;5055210;28;20384;-68
2023/10/12 00:45:49;;;;;;;6.10;2.80;;;12.00;99.90;;;;;;5054127;28;20501;-65
2023/10/12 00:48:19;;;;;;;12.10;3.27;;;11.90;99.90;;;;;;5055274;28;20401;-65
2023/10/12 00:50:45;;;;;;;11.97;2.67;;;11.90;99.90;;;;;;5055227;28;20393;-66
2023/10/12 00:53:22;;;;;;;12.00;2.60;;;11.90;99.90;;;;;;5055142;28;20405;-66
2023/10/12 00:55:48;;;;;;;7.97;3.20;;;11.90;99.90;;;;;;5053598;28;20475;-66
2023/10/12 00:58:15;;;;;;;9.57;2.90;;;11.90;99.90;;;;;;5055065;28;20372;-65
2023/10/12 01:00:54;;;;;;;12.70;3.03;;;11.80;99.90;;;;;;5055125;28;20383;-67
2023/10/12 01:08:42;;;;;;;7.73;2.70;;;11.60;99.90;;;;;;5055226;28;20384;-65
2023/10/12 01:11:09;;;;;;;13.97;3.67;;;11.60;99.90;;;;;;5054235;28;20376;-69
2023/10/12 01:13:35;;;;;;;11.17;3.30;;;11.60;99.90;;;;;;5054754;28;20406;-65
2023/10/12 01:16:08;;;;;;;8.10;2.03;;;11.60;99.90;;;;;;5053785;28;20491;-67
2023/10/12 01:18:34;;;;;;;7.07;2.13;;;11.60;99.90;;;;;;5054735;28;20772;-66
2023/10/12 01:21:03;;;;;;;7.50;2.90;;;11.60;99.90;;;;;;5054576;28;20372;-65
2023/10/12 01:23:29;;;;;;;5.53;1.80;;;11.60;99.90;;;;;;5054522;28;20737;-67
2023/10/12 01:26:03;;;;;;;4.87;2.63;;;11.60;99.90;;;;;;5053308;28;20709;-65
2023/10/12 01:28:29;;;;;;;8.90;2.57;;;11.60;99.90;;;;;;5053915;28;20631;-66
2023/10/12 01:30:55;;;;;;;13.00;2.50;;;11.60;99.90;;;;;;5054387;28;20411;-65
2023/10/12 01:33:20;;;;;;;7.70;3.40;;;11.60;99.90;;;;;;5054446;28;20221;-68
2023/10/12 01:35:48;;;;;;;7.63;2.80;;;11.60;99.90;;;;;;5052408;28;20195;-66
2023/10/12 01:38:14;;;;;;;14.57;3.73;;;11.60;99.90;;;;;;5054244;28;20167;-65
2023/10/12 01:41:01;;;;;;;10.13;3.10;;;11.50;99.90;;;;;;5054409;28;20730;-65
2023/10/12 01:43:29;;;;;;;6.37;2.27;;;11.50;99.90;;;;;;5053964;28;20745;-66
2023/10/12 01:46:01;;;;;;;8.63;4.10;;;11.50;99.90;;;;;;5053045;28;20995;-65
2023/10/12 01:48:33;;;;;;;10.87;2.73;;;11.40;99.90;;;;;;5053636;28;20373;-65
2023/10/12 01:51:03;;;;;;;10.33;2.77;;;11.40;99.90;;;;;;5054058;28;20456;-65
2023/10/12 01:53:32;;;;;;;4.63;2.60;;;11.30;99.90;;;;;;5054036;28;20372;-65
2023/10/12 01:55:59;;;;;;;12.83;3.07;;;11.30;99.90;;;;;;5052987;28;20418;-65
2023/10/12 01:58:27;;;;;;;10.50;3.30;;;11.30;99.90;;;;;;5052576;28;21148;-65
2023/10/12 02:00:54;;;;;;;8.13;3.10;;;11.20;99.90;;;;;;5053938;28;20403;-65
2023/10/12 02:06:02;;;;;;;25.50;3.50;;;11.20;99.90;;;;;;5052768;28;20439;-65
2023/10/12 02:08:32;;;;;;;8.40;2.00;;;11.20;99.90;;;;;;5053124;28;20383;-65
2023/10/12 02:11:26;;;;;;;10.80;2.60;;;11.30;99.90;;;;;;5053671;28;20390;-65
2023/10/12 02:13:54;;;;;;;6.90;2.50;;;11.30;99.90;;;;;;5053608;28;20406;-67
2023/10/12 02:16:24;;;;;;;6.20;2.40;;;11.30;99.90;;;;;;5052519;28;20407;-65
2023/10/12 02:18:50;;;;;;;14.77;3.67;;;11.20;99.90;;;;;;5053568;28;20496;-65
2023/10/12 02:21:22;;;;;;;8.50;3.63;;;11.20;99.90;;;;;;5053488;28;20467;-65
2023/10/12 02:24:11;;;;;;;8.57;3.07;;;11.20;99.90;;;;;;5052950;28;20384;-67
2023/10/12 02:29:18;;;;;;;7.17;2.70;;;11.20;99.90;;;;;;5053521;28;20375;-65
2023/10/12 02:31:55;;;;;;;14.07;2.63;;;11.20;99.90;;;;;;5053297;28;20627;-64
2023/10/12 02:34:31;;;;;;;8.73;2.73;;;11.20;99.90;;;;;;5053188;28;20405;-65
2023/10/12 02:39:41;;;;;;;9.60;3.23;;;11.10;99.90;;;;;;5053244;28;20445;-65
2023/10/12 02:42:17;;;;;;;5.67;2.97;;;11.20;99.90;;;;;;5052431;28;20429;-65
2023/10/12 02:47:30;;;;;;;15.63;2.73;;;11.20;99.90;;;;;;5053107;28;20395;-65
2023/10/12 02:52:38;;;;;;;5.63;2.30;;;11.20;99.90;;;;;;5052979;28;20393;-66
2023/10/12 02:55:17;;;;;;;11.47;2.70;;;11.20;99.90;;;;;;5052133;28;20539;-64
2023/10/12 02:57:53;;;;;;;5.63;2.23;;;11.20;99.90;;;;;;5052859;28;20417;-65
2023/10/12 03:00:21;;;;;;;9.80;2.70;;;11.10;99.90;;;;;;5052879;28;20869;-66
2023/10/12 03:02:51;;;;;;;9.63;3.13;;;11.20;99.90;;;;;;5052245;28;20378;-65
2023/10/12 03:05:31;;;;;;;10.17;2.13;;;11.10;99.90;;;;;;5051906;28;20465;-65
2023/10/12 03:08:06;;;;;;;8.93;2.40;;;11.20;99.90;;;;;;5052875;28;20372;-65
2023/10/12 03:10:31;;;;;;;14.57;2.83;;;11.10;99.90;;;;;;5052854;28;20375;-66
2023/10/12 03:13:04;;;;;;;12.87;3.23;;;11.10;99.90;;;;;;5052785;28;20807;-65
2023/10/12 03:15:48;;;;;;;5.43;2.00;;;11.00;99.90;;;;;;5051681;28;20466;-65
2023/10/12 03:18:14;;;;;;;16.73;2.47;;;11.00;99.90;;;;;;5052299;28;20393;-68
2023/10/12 03:20:52;;;;;;;7.50;2.20;;;11.10;99.90;;;;;;5052529;28;20413;-65
2023/10/12 03:23:19;;;;;;;4.73;2.03;;;11.10;99.90;;;;;;5052827;28;20166;-64
2023/10/12 03:25:46;;;;;;;11.97;4.63;;;11.10;99.90;;;;;;5051543;28;20449;-64
2023/10/12 03:28:17;;;;;;;9.77;2.80;;;11.10;99.90;;;;;;5052715;28;20451;-65
2023/10/12 03:30:53;;;;;;;10.23;2.50;;;11.10;99.90;;;;;;5052575;28;20398;-68
2023/10/12 03:33:19;;;;;;;9.60;2.57;;;11.10;99.90;;;;;;5052724;28;20396;-66
2023/10/12 03:36:17;;;;;;;11.07;2.57;;;11.10;99.90;;;;;;5051671;28;20418;-64
2023/10/12 03:38:43;;;;;;;9.73;2.57;;;11.10;99.90;;;;;;5052035;28;20464;-65
2023/10/12 03:44:02;;;;;;;8.87;2.77;;;11.00;99.90;;;;;;5052771;28;20885;-65
2023/10/12 03:46:28;;;;;;;9.47;2.30;;;11.00;99.90;;;;;;5051459;28;20480;-65
2023/10/12 03:51:39;;;;;;;6.10;2.63;;;11.00;99.90;;;;;;5056344;28;20363;-65
2023/10/12 03:54:12;;;;;;;7.33;3.00;;;11.00;99.90;;;;;;5056269;28;20717;-69
2023/10/12 03:56:40;;;;;;;17.40;3.00;;;11.00;99.90;;;;;;5055048;28;20396;-67
2023/10/12 03:59:08;;;;;;;8.20;2.23;;;11.00;99.90;;;;;;5055694;28;20382;-64
2023/10/12 04:01:40;;;;;;;8.63;3.30;;;11.00;99.90;;;;;;5056182;28;20393;-65
2023/10/12 04:09:31;;;;;;;4.90;2.77;;;11.00;99.90;;;;;;5055936;28;20480;-65
2023/10/12 04:12:16;;;;;;;8.73;2.87;;;11.00;99.90;;;;;;5056108;28;20395;-65
2023/10/12 04:17:09;;;;;;;10.63;2.57;;;11.00;99.90;;;;;;5055048;28;20413;-66
2023/10/12 04:19:38;;;;;;;8.23;2.57;;;11.00;99.90;;;;;;5055830;28;20411;-65
2023/10/12 04:22:24;;;;;;;4.57;2.60;;;11.00;99.90;;;;;;5055709;28;20467;-67
2023/10/12 04:24:54;;;;;;;12.43;2.93;;;11.00;99.90;;;;;;5054827;28;21114;-68
2023/10/12 04:29:51;;;;;;;3.80;2.27;;;11.00;99.90;;;;;;5055763;28;20471;-65
2023/10/12 04:32:52;;;;;;;3.90;2.67;;;10.90;99.90;;;;;;5055462;28;20893;-65
2023/10/12 04:35:11;;;;;;;9.97;2.50;;;10.90;99.90;;;;;;5054261;28;20415;-67
2023/10/12 04:37:38;;;;;;;16.30;4.70;;;10.90;99.90;;;;;;5055000;28;20416;-65
2023/10/12 04:40:32;;;;;;;10.03;2.97;;;11.00;99.90;;;;;;5055439;28;20372;-67
2023/10/12 04:42:53;;;;;;;8.33;3.53;;;10.90;99.90;;;;;;5055098;28;20406;-66
2023/10/12 04:47:46;;;;;;;7.83;3.00;;;10.90;99.90;;;;;;5055097;28;20388;-65
2023/10/12 04:50:27;;;;;;;7.17;2.87;;;10.90;99.90;;;;;;5055219;28;20600;-65
2023/10/12 04:53:09;;;;;;;6.53;2.67;;;10.90;99.90;;;;;;5054694;28;20372;-65
2023/10/12 04:55:35;;;;;;;6.67;2.70;;;10.90;99.90;;;;;;5054076;28;20423;-65
2023/10/12 04:58:14;;;;;;;8.60;3.50;;;10.80;93.90;;;;;;5054728;28;20396;-67
2023/10/12 05:01:16;;;;;;;6.93;3.37;;;10.80;92.20;;;;;;5055075;28;20509;-65
2023/10/12 05:03:42;;;;;;;9.10;2.60;;;10.80;84.20;;;;;;5054895;28;20476;-66
2023/10/12 05:06:09;;;;;;;4.13;2.10;;;10.80;81.00;;;;;;5053816;28;20530;-67
2023/10/12 05:08:35;;;;;;;6.53;2.10;;;10.80;81.00;;;;;;5054377;28;20163;-67
2023/10/12 05:11:06;;;;;;;13.70;2.63;;;10.80;73.90;;;;;;5054826;28;20371;-65
2023/10/12 05:13:31;;;;;;;5.47;2.40;;;10.80;60.30;;;;;;5054684;28;20372;-64
2023/10/12 05:16:06;;;;;;;6.07;2.70;;;10.70;50.10;;;;;;5053770;28;20432;-65
2023/10/12 05:18:33;;;;;;;6.57;3.57;;;10.70;40.00;;;;;;5054801;28;20171;-64
2023/10/12 05:21:00;;;;;;;13.33;2.40;;;10.60;32.50;;;;;;5054709;28;20360;-65
2023/10/12 05:23:26;;;;;;;5.87;3.23;;;10.60;32.50;;;;;;5054549;28;20405;-69
2023/10/12 05:28:21;;;;;;;7.57;2.87;;;10.60;32.50;;;;;;5054532;28;20375;-64
2023/10/12 05:30:55;;;;;;;7.23;3.07;;;10.60;32.50;;;;;;5054380;28;20394;-65
2023/10/12 05:36:11;;;;;;;10.97;2.73;;;10.60;19.60;;;;;;5053614;28;20465;-65
2023/10/12 05:38:49;;;;;;;10.90;3.40;;;10.60;15.50;;;;;;5054852;28;20384;-65
2023/10/12 05:41:49;;;;;;;9.10;3.43;;;10.60;10.90;;;;;;5054743;28;20388;-65
2023/10/12 05:44:14;;;;;;;4.53;2.60;;;10.60;7.20;;;;;;5054244;28;20395;-65
2023/10/12 05:46:41;;;;;;;7.00;2.50;;;10.60;1.00;;;;;;5053231;28;20461;-64
2023/10/12 05:49:14;;;;;;;5.00;2.97;;;10.60;1.00;;;;;;5054094;28;20406;-65
2023/10/12 05:51:43;;;;;;;8.77;2.83;;;10.60;1.00;;;;;;5053946;28;20401;-66
2023/10/12 05:54:10;;;;;;;6.30;3.20;;;10.60;1.00;;;;;;5052734;28;20417;-65
2023/10/12 05:56:36;;;;;;;9.90;3.40;;;10.60;1.00;;;;;;5053151;28;20429;-64
2023/10/12 05:59:04;;;;;;;9.97;2.93;;;10.60;1.00;;;;;;5053778;28;20384;-69
2023/10/12 06:01:32;;;;;;;9.37;3.60;;;10.60;1.00;;;;;;5053462;28;20406;-65
2023/10/12 06:04:00;;;;;;;5.30;2.07;;;10.70;1.00;;;;;;5053844;28;20499;-65
2023/10/12 06:06:26;;;;;;;13.43;2.83;;;10.70;1.00;;;;;;5052712;28;20436;-65
2023/10/12 06:08:55;;;;;;;9.00;2.60;;;10.70;1.00;;;;;;5053465;28;20467;-65
2023/10/12 06:11:25;;;;;;;10.67;3.70;;;10.60;1.00;;;;;;5053215;28;20372;-68
2023/10/12 06:13:52;;;;;;;9.07;2.60;;;10.70;1.00;;;;;;5053801;28;20401;-65
2023/10/12 06:16:20;;;;;;;6.83;4.53;;;10.70;1.00;;;;;;5052431;28;20883;-67
2023/10/12 06:18:46;;;;;;;9.77;2.80;;;10.70;1.00;;;;;;5048768;28;20753;-68
2023/10/12 06:21:19;;;;;;;6.67;3.17;;;10.80;1.00;;;;;;5033671;28;20402;-65
2023/10/12 06:23:49;;;;;;;8.97;2.70;;;10.80;1.00;;;;;;5032598;28;20446;-65
2023/10/12 06:26:30;;;;;;;16.37;4.03;;;10.80;1.00;;;;;;5031100;28;20523;-66
2023/10/12 06:28:59;;;;;;;3.73;3.03;;;10.80;1.00;;;;;;5033542;28;20410;-65
2023/10/12 06:31:26;;;;;;;5.80;2.93;;;10.80;1.00;;;;;;5033508;28;20415;-65
2023/10/12 06:33:56;;;;;;;5.80;2.40;;;10.80;1.00;;;;;;5033218;28;20435;-65
2023/10/12 06:36:36;;;;;;;14.77;4.20;;;10.80;1.00;;;;;;5032443;28;20500;-65
2023/10/12 06:44:22;;;;;;;9.90;2.90;;;10.80;1.00;;;;;;5033495;28;20414;-65
2023/10/12 06:46:49;;;;;;;11.73;2.43;;;10.90;1.00;;;;;;5032577;28;20465;-66
2023/10/12 06:49:44;;;;;;;9.13;2.27;;;10.80;1.00;;;;;;5033317;28;20377;-65
2023/10/12 06:52:04;;;;;;;7.33;2.30;;;10.90;1.00;;;;;;5032954;28;20397;-68
2023/10/12 06:54:32;;;;;;;9.50;2.60;;;10.90;1.00;;;;;;5032202;28;20399;-78
2023/10/12 06:59:52;;;;;;;3.00;1.83;;;11.00;1.00;;;;;;5033248;28;20862;-65
2023/10/12 07:02:24;;;;;;;4.80;2.90;;;11.00;1.00;;;;;;5032947;28;20399;-65
2023/10/12 07:05:09;;;;;;;3.27;2.50;;;11.10;1.00;;;;;;5032352;28;20927;-64
2023/10/12 07:07:40;;;;;;;10.40;2.67;;;11.20;1.00;;;;;;5032930;28;20967;-65
2023/10/12 07:12:52;;;;;;;9.90;3.60;;;11.20;1.00;;;;;;5032470;28;20382;-65
2023/10/12 07:15:21;;;;;;;7.47;3.70;;;11.40;1.00;;;;;;5032400;28;20769;-64
2023/10/12 07:17:50;;;;;;;8.97;3.43;;;11.40;1.00;;;;;;5032877;28;20414;-65
2023/10/12 07:25:58;;;;;;;4.10;2.10;;;11.50;99.90;;;;;;5043171;28;20814;-66
2023/10/12 07:28:33;;;;;;;5.80;3.63;;;11.50;99.90;;;;;;5036858;28;20406;-65
2023/10/12 07:33:51;;;;;;;9.03;2.50;;;11.50;99.90;;;;;;5036779;28;20423;-65
2023/10/12 07:36:17;;;;;;;9.23;4.37;;;11.50;99.90;;;;;;5036081;28;20512;-65
2023/10/12 07:39:14;;;;;;;11.53;2.90;;;11.40;99.90;;;;;;5036662;28;20476;-67
2023/10/12 07:41:41;;;;;;;7.60;3.50;;;11.50;99.90;;;;;;5036535;28;20422;-65
2023/10/12 07:44:07;;;;;;;6.07;2.37;;;11.60;99.90;;;;;;5036545;28;20869;-67
2023/10/12 07:46:35;;;;;;;7.53;2.63;;;11.60;99.90;;;;;;5035796;28;20977;-66
2023/10/12 07:52:22;;;;;;;9.20;3.47;;;11.50;99.90;;;;;;5044194;28;20467;-66
2023/10/12 07:57:13;;;;;;;4.37;2.20;;;11.60;99.90;;;;;;5036461;28;20393;-65
2023/10/12 08:00:34;;;;;;;8.20;3.10;;;11.60;99.90;;;;;;5035076;28;20393;-65
2023/10/12 08:13:32;;;;;;;6.97;2.17;;;12.00;99.90;;;;;;5035977;28;20375;-66
2023/10/12 08:15:59;;;;;;;6.43;2.70;;;12.20;99.90;;;;;;5035563;28;20472;-66
2023/10/12 08:21:26;;;;;;;8.00;2.93;;;12.40;99.90;;;;;;5036277;28;20432;-65
2023/10/12 08:39:49;;;;;;;8.40;3.60;;;12.50;99.90;;;;;;5035696;28;20385;-66
2023/10/12 08:45:14;;;;;;;12.83;2.90;;;12.70;99.90;;;;;;5034705;28;20417;-66
2023/10/12 08:47:48;;;;;;;9.23;2.10;;;12.80;99.90;;;;;;5034746;28;20511;-66
2023/10/12 08:52:55;;;;;;;10.33;3.37;;;13.30;99.90;;;;;;5035332;28;20402;-65
2023/10/12 08:55:24;;;;;;;4.73;2.27;;;13.50;99.90;;;;;;5034340;28;20460;-68
2023/10/12 08:58:39;;;;;;;4.80;2.43;;;13.80;99.90;;;;;;5035288;28;20477;-66
2023/10/12 09:01:08;;;;;;;7.93;1.80;;;14.20;99.90;;;;;;5035056;28;20394;-66
2023/10/12 09:03:44;;;;;;;6.67;1.73;;;14.70;99.90;;;;;;5035050;28;20485;-67
2023/10/12 09:08:56;;;;;;;4.33;2.40;;;15.40;99.90;;;;;;5035283;28;20414;-66
2023/10/12 09:11:33;;;;;;;4.90;2.00;;;15.60;99.90;;;;;;5034825;28;20430;-69
2023/10/12 09:14:00;;;;;;;7.17;1.97;;;15.70;99.90;;;;;;5034992;28;20398;-67
2023/10/12 09:16:27;;;;;;;7.07;2.20;;;15.90;99.90;;;;;;5033929;28;20427;-66
2023/10/12 09:19:00;;;;;;;6.50;2.00;;;16.10;94.30;;;;;;5033854;28;20457;-66
2023/10/12 09:21:39;;;;;;;10.23;2.30;;;16.40;90.20;;;;;;5034682;28;20406;-70
2023/10/12 09:24:21;;;;;;;3.60;2.53;;;16.60;33.00;;;;;;5034631;28;20441;-71
2023/10/12 09:26:51;;;;;;;9.50;1.80;;;16.70;1.00;;;;;;5033195;28;20490;-68
2023/10/12 09:29:23;;;;;;;6.73;1.80;;;16.80;1.00;;;;;;5034636;28;20394;-68
2023/10/12 09:32:16;;;;;;;7.97;2.17;;;17.10;1.00;;;;;;5034595;28;20968;-66
2023/10/12 09:37:33;;;;;;;7.87;2.07;;;17.30;1.00;;;;;;5034300;28;20552;-67
2023/10/12 09:39:59;;;;;;;8.73;2.40;;;17.50;1.00;;;;;;5034407;28;20821;-66
2023/10/12 09:42:30;;;;;;;3.87;1.37;;;17.30;1.00;;;;;;5034335;28;20398;-66
2023/10/12 09:45:10;;;;;;;7.60;1.33;;;16.70;1.00;;;;;;5032026;28;20403;-66
2023/10/12 09:47:44;;;;;;;7.33;2.30;;;16.20;1.00;;;;;;5034049;28;20401;-68
2023/10/12 09:50:13;;;;;;;8.37;1.70;;;15.90;1.00;;;;;;5034233;28;20803;-67
2023/10/12 09:52:57;;;;;;;2.43;1.47;;;15.60;1.00;;;;;;5034302;28;20391;-66
2023/10/12 09:55:36;;;;;;;7.23;2.53;;;15.40;1.00;;;;;;5033099;28;20394;-67
2023/10/12 09:58:50;;;;;;;5.40;2.30;;;15.20;1.00;;;;;;5034066;28;20393;-68
2023/10/12 10:01:15;;;;;;;3.00;1.77;;;15.00;1.00;;;;;;5036022;28;20924;-66
2023/10/12 10:03:52;;;;;;;4.87;1.57;;;14.80;1.00;;;;;;5033314;28;20755;-66
2023/10/12 10:06:37;;;;;;;6.07;1.77;;;14.80;1.00;;;;;;5032847;28;20838;-67
2023/10/12 10:09:37;;;;;;;8.73;3.03;;;14.70;1.00;;;;;;5033845;28;20398;-66
2023/10/12 10:11:59;;;;;;;7.43;2.50;;;14.50;1.00;;;;;;5033568;28;20422;-66
2023/10/12 10:14:34;;;;;;;7.53;2.00;;;14.40;1.00;;;;;;5033532;28;20402;-67
2023/10/12 10:17:01;;;;;;;4.80;1.47;;;14.50;1.00;;;;;;5033639;28;20500;-66
2023/10/12 10:19:30;;;;;;;5.00;2.30;;;14.60;1.00;;;;;;5033570;28;20403;-67
2023/10/12 10:22:05;;;;;;;4.53;1.60;;;14.60;1.00;;;;;;5033109;28;20486;-66
2023/10/12 10:24:57;;;;;;;5.03;1.77;;;14.70;1.00;;;;;;5032898;28;20410;-76
2023/10/12 10:27:34;;;;;;;6.50;2.07;;;15.30;1.00;;;;;;5032968;28;20481;-67
2023/10/12 10:30:36;;;;;;;8.23;2.60;;;16.00;1.00;;;;;;5033442;28;20441;-67
2023/10/12 10:33:12;;;;;;;4.03;1.63;;;16.70;1.00;;;;;;5033396;28;20475;-67
2023/10/12 10:36:10;;;;;;;1.63;1.10;;;16.80;1.00;;;;;;5032404;28;20410;-67
2023/10/12 10:39:38;;;;;;;14.60;2.07;;;16.50;1.00;;;;;;5033022;28;20920;-67
2023/10/12 10:41:45;;;;;;;5.80;1.87;;;16.10;1.00;;;;;;5036261;28;20415;-67
2023/10/12 10:46:45;;;;;;;10.37;1.90;;;15.90;1.00;;;;;;5032398;28;21065;-67
2023/10/12 10:49:15;;;;;;;5.87;1.20;;;15.80;1.00;;;;;;5033241;28;20942;-66
2023/10/12 10:51:48;;;;;;;5.87;1.47;;;15.90;1.00;;;;;;5033006;28;20423;-66
2023/10/12 10:54:20;;;;;;;3.10;1.67;;;16.00;1.00;;;;;;5033045;28;20400;-68
2023/10/12 10:56:47;;;;;;;2.47;1.27;;;16.00;1.00;;;;;;5031864;28;20921;-68
2023/10/12 10:59:17;;;;;;;4.03;1.20;;;16.10;1.00;;;;;;5032997;28;20394;-67
2023/10/12 11:01:48;;;;;;;3.60;1.50;;;16.00;1.00;;;;;;5032689;28;20406;-67
2023/10/12 11:04:27;;;;;;;12.20;2.40;;;16.10;1.00;;;;;;5032919;28;20463;-67
2023/10/12 11:06:53;;;;;;;8.50;2.07;;;16.10;1.00;;;;;;5032075;28;20518;-67
2023/10/12 11:09:31;;;;;;;6.27;2.00;;;16.00;1.00;;;;;;5032983;28;20438;-67
2023/10/12 11:12:00;;;;;;;3.50;1.60;;;15.70;1.00;;;;;;5033042;28;20764;-66
2023/10/12 11:14:31;;;;;;;5.43;1.80;;;15.50;1.00;;;;;;5032632;28;20464;-67
2023/10/12 11:17:00;;;;;;;5.57;1.90;;;15.50;1.00;;;;;;5031566;28;20445;-67
2023/10/12 11:19:27;;;;;;;9.80;1.70;;;15.60;1.00;;;;;;5032594;28;20456;-67
2023/10/12 11:21:53;;;;;;;4.23;1.70;;;15.70;1.00;;;;;;5032672;28;20409;-67
2023/10/12 11:24:22;;;;;;;9.00;2.63;;;15.70;1.00;;;;;;5031483;28;20410;-67
2023/10/12 11:26:56;;;;;;;8.60;1.70;;;15.80;1.00;;;;;;5031740;28;20211;-67
2023/10/12 11:29:24;;;;;;;2.80;1.20;;;15.90;1.00;;;;;;5032837;28;20394;-70
2023/10/12 11:32:09;;;;;;;5.03;1.33;;;16.10;1.00;;;;;;5032782;28;20906;-67
2023/10/12 11:34:45;;;;;;;3.47;1.67;;;16.30;1.00;;;;;;5031965;28;20398;-67
2023/10/12 11:37:14;;;;;;;4.40;1.43;;;16.40;1.00;;;;;;5032714;28;20448;-66
2023/10/12 11:39:44;;;;;;;3.83;1.87;;;16.30;1.00;;;;;;5032325;28;20411;-69
2023/10/12 11:42:14;;;;;;;9.27;1.60;;;16.30;1.00;;;;;;5032381;28;20395;-67
2023/10/12 11:44:45;;;;;;;3.33;1.57;;;16.20;1.00;;;;;;5031792;28;20407;-67
2023/10/12 11:47:13;;;;;;;9.03;1.90;;;16.30;1.00;;;;;;5032560;28;20973;-66
2023/10/12 11:49:55;;;;;;;2.33;1.37;;;16.50;1.00;;;;;;5032531;28;20472;-67
2023/10/12 11:52:33;;;;;;;4.10;1.90;;;16.70;1.00;;;;;;5032466;28;20405;-68
2023/10/12 11:55:21;;;;;;;2.40;1.43;;;17.00;1.00;;;;;;5031664;28;20497;-67
2023/10/12 11:57:54;;;;;;;3.33;1.60;;;17.20;1.00;;;;;;5032350;28;20473;-67
2023/10/12 12:02:52;;;;;;;5.30;1.57;;;17.60;1.00;;;;;;5032541;28;20460;-67
2023/10/12 12:05:19;;;;;;;2.20;1.73;;;17.70;1.00;;;;;;5031186;28;20438;-66
2023/10/12 12:07:51;;;;;;;5.00;1.40;;;17.60;1.00;;;;;;5043476;28;20429;-66
2023/10/12 12:11:04;;;;;;;8.90;1.40;;;17.60;1.00;;;;;;5053527;28;20416;-66
2023/10/12 12:13:08;;;;;;;6.00;1.80;;;17.40;1.00;;;;;;5058662;28;20762;-66
2023/10/12 12:15:40;;;;;;;3.30;1.50;;;17.10;99.90;;;;;;5054779;28;20401;-67
2023/10/12 12:18:13;;;;;;;5.37;1.23;;;16.90;1.00;;;;;;5050966;28;20444;-67
2023/10/12 12:20:39;;;;;;;7.37;1.53;;;16.80;1.00;;;;;;5050484;28;20459;-67
2023/10/12 12:23:09;;;;;;;3.83;1.30;;;16.70;1.00;;;;;;5045756;28;21089;-67
2023/10/12 12:25:38;;;;;;;11.03;2.27;;;16.40;1.00;;;;;;5041288;28;20194;-66
2023/10/12 12:28:08;;;;;;;5.47;1.83;;;16.30;1.00;;;;;;5053049;28;20417;-67
2023/10/12 12:30:36;;;;;;;9.90;2.10;;;16.20;1.00;;;;;;5054435;28;20414;-66
2023/10/12 12:33:08;;;;;;;3.90;1.43;;;16.10;1.00;;;;;;5055252;28;21146;-68
2023/10/12 12:35:39;;;;;;;7.50;1.87;;;15.90;1.00;;;;;;5054049;28;20542;-65
2023/10/12 12:38:22;;;;;;;4.10;2.10;;;16.00;1.00;;;;;;5056047;28;20385;-67
2023/10/12 12:40:49;;;;;;;12.03;2.43;;;16.40;1.00;;;;;;5055826;28;20759;-66
2023/10/12 12:43:15;;;;;;;4.70;1.60;;;17.80;1.00;;;;;;5055642;28;20770;-66
2023/10/12 12:45:41;;;;;;;6.30;1.67;;;19.20;1.00;;;;;;5054545;28;20440;-67
2023/10/12 12:48:07;;;;;;;8.30;2.43;;;20.20;1.00;;;;;;5049955;28;20171;-67
2023/10/12 12:50:32;;;;;;;4.90;1.30;;;21.30;1.00;;;;;;5039644;28;20904;-67
2023/10/12 12:52:58;;;;;;;5.77;1.57;;;21.50;99.90;;;;;;5035461;28;20402;-66
2023/10/12 12:55:31;;;;;;;5.00;1.60;;;21.50;99.90;;;;;;5038099;28;20253;-66
2023/10/12 12:57:57;;;;;;;5.37;1.43;;;20.70;99.90;;;;;;5035324;28;20168;-64
2023/10/12 13:00:22;;;;;;;6.07;1.90;;;19.50;99.90;;;;;;5035458;28;20414;-64
2023/10/12 13:02:49;;;;;;;4.60;1.53;;;18.60;99.90;;;;;;5035311;28;20174;-66
2023/10/12 13:05:15;;;;;;;5.90;1.87;;;18.10;99.90;;;;;;5034198;28;20782;-64
2023/10/12 13:07:45;;;;;;;4.67;2.03;;;17.80;99.90;;;;;;5035194;28;20430;-64
2023/10/12 13:10:11;;;;;;;2.30;1.50;;;17.20;99.90;;;;;;5035328;28;20544;-64
2023/10/12 13:12:42;;;;;;;6.47;1.70;;;17.00;99.90;;;;;;5034611;28;20425;-65
2023/10/12 13:15:10;;;;;;;5.07;2.00;;;16.80;99.90;;;;;;5034211;28;20391;-65
2023/10/12 13:17:38;;;;;;;6.20;2.07;;;16.70;99.90;;;;;;5034946;28;20414;-64
2023/10/12 13:20:06;;;;;;;6.43;2.10;;;16.80;99.90;;;;;;5034831;28;20586;-65
2023/10/12 13:22:33;;;;;;;3.63;1.60;;;17.00;99.90;;;;;;5035063;28;20399;-64
2023/10/12 13:24:59;;;;;;;7.80;2.90;;;17.70;99.90;;;;;;5032853;28;20418;-64
2023/10/12 13:27:27;;;;;;;9.10;1.60;;;18.00;99.90;;;;;;5033454;28;21009;-63
2023/10/12 13:30:09;;;;;;;3.23;1.50;;;18.40;99.90;;;;;;5034752;28;20407;-66
2023/10/12 13:32:36;;;;;;;4.13;1.47;;;19.30;99.90;;;;;;5034432;28;20948;-64
2023/10/12 13:35:17;;;;;;;3.63;1.67;;;20.00;99.90;;;;;;5033975;28;20913;-63
2023/10/12 13:37:46;;;;;;;5.00;1.60;;;20.40;99.90;;;;;;5033394;28;20775;-64
2023/10/12 13:40:15;;;;;;;3.30;1.10;;;20.30;99.90;;;;;;5034288;28;20410;-63
2023/10/12 13:42:44;;;;;;;7.57;1.70;;;20.20;99.90;;;;;;5034720;28;20402;-63
2023/10/12 13:45:18;;;;;;;9.47;1.83;;;19.80;99.90;;;;;;5032483;28;20425;-66
2023/10/12 13:47:46;;;;;;;4.73;1.90;;;19.60;99.90;;;;;;5034454;28;20419;-64
2023/10/12 13:50:13;;;;;;;7.57;1.77;;;18.90;99.90;;;;;;5034411;28;20903;-64
2023/10/12 13:52:41;;;;;;;5.83;1.90;;;18.30;99.90;;;;;;5033904;28;20787;-64
2023/10/12 13:55:13;;;;;;;7.07;1.63;;;17.70;99.90;;;;;;5032378;28;20403;-64
2023/10/12 13:57:55;;;;;;;3.73;1.60;;;17.40;99.90;;;;;;5034240;28;20969;-64
2023/10/12 14:00:25;;;;;;;5.47;1.73;;;17.30;99.90;;;;;;5033044;28;20937;-63
2023/10/12 14:02:56;;;;;;;5.50;1.77;;;17.10;99.90;;;;;;5034338;28;20504;-63
2023/10/12 14:05:29;;;;;;;4.80;2.13;;;16.90;99.90;;;;;;5033144;28;20418;-65
2023/10/12 14:08:01;;;;;;;9.40;2.13;;;16.70;99.90;;;;;;5032741;28;20783;-67
2023/10/12 14:10:27;;;;;;;9.60;1.60;;;16.60;99.90;;;;;;5033575;28;20417;-63
2023/10/12 14:12:53;;;;;;;8.93;1.70;;;16.40;99.90;;;;;;5034087;28;20438;-63
2023/10/12 14:15:21;;;;;;;6.10;2.07;;;16.20;99.90;;;;;;5033113;28;20409;-65
2023/10/12 14:17:47;;;;;;;6.77;2.17;;;16.00;99.90;;;;;;5033748;28;20429;-66
2023/10/12 14:20:13;;;;;;;7.07;2.20;;;16.10;99.90;;;;;;5032743;28;20497;-65
2023/10/12 14:22:44;;;;;;;5.20;1.77;;;16.20;99.90;;;;;;5033962;28;20827;-66
2023/10/12 14:25:17;;;;;;;11.00;2.27;;;16.20;99.90;;;;;;5033065;28;20486;-66
2023/10/12 14:27:42;;;;;;;8.77;2.10;;;16.20;99.90;;;;;;5031758;28;20795;-66
2023/10/12 14:30:15;;;;;;;3.33;1.60;;;16.20;99.90;;;;;;5033491;28;20399;-66
2023/10/12 14:32:41;;;;;;;3.27;1.87;;;16.10;99.90;;;;;;5033270;28;20160;-65
2023/10/12 14:35:09;;;;;;;11.23;2.13;;;16.10;99.90;;;;;;5033018;28;20405;-65
2023/10/12 14:37:36;;;;;;;5.60;1.73;;;16.00;99.90;;;;;;5033620;28;20491;-65
2023/10/12 14:40:10;;;;;;;3.30;1.93;;;16.10;99.90;;;;;;5033551;28;20409;-65
2023/10/12 14:42:40;;;;;;;7.90;2.07;;;16.10;99.90;;;;;;5033662;28;20402;-65
2023/10/12 14:45:10;;;;;;;5.60;2.07;;;16.10;99.90;;;;;;5030733;28;20406;-67
2023/10/12 14:47:36;;;;;;;9.67;2.63;;;16.00;99.90;;;;;;5033503;28;20503;-65
2023/10/12 14:50:16;;;;;;;6.10;2.80;;;16.00;99.90;;;;;;5033514;28;20433;-65
2023/10/12 14:52:42;;;;;;;7.00;2.20;;;15.80;99.90;;;;;;5033545;28;20803;-66
2023/10/12 14:55:10;;;;;;;8.20;2.80;;;15.70;99.90;;;;;;5032579;28;20469;-68
2023/10/12 14:57:40;;;;;;;6.27;2.17;;;15.60;99.90;;;;;;5033357;28;21225;-65
2023/10/12 15:00:22;;;;;;;6.33;2.60;;;15.50;99.90;;;;;;5032296;28;20418;-69
2023/10/12 15:02:48;;;;;;;10.40;3.07;;;15.50;99.90;;;;;;5031461;28;20436;-66
2023/10/12 15:05:14;;;;;;;6.97;2.27;;;15.40;99.90;;;;;;5032377;28;20423;-66